Time;durP1;ratioP1;P1;durP2;ratioP2;P2;SDS_P1;SDS_P2;PMS_P1;PMS_P2;Temp;Humidity;BMP_temperature;BMP_pressure;BME280_temperature;BME280_humidity;BME280_pressure;Samples;Min_cycle;Max_cycle;Signal;HPM_P1;HPM_P2
2022/06/15 00:00:59;;;;;;;7.95;5.53;;;15.20;99.90;;;;;;5056754;28;20041;-63
2022/06/15 00:03:28;;;;;;;8.38;5.32;;;15.20;99.90;;;;;;5055866;28;20084;-63
2022/06/15 00:06:12;;;;;;;8.05;5.28;;;15.10;99.90;;;;;;5055568;28;20041;-64
2022/06/15 00:08:41;;;;;;;10.70;5.53;;;15.10;99.90;;;;;;5055399;28;20465;-64
2022/06/15 00:11:15;;;;;;;6.65;4.80;;;15.00;99.90;;;;;;5039013;28;20056;-64
2022/06/15 00:13:43;;;;;;;6.50;4.78;;;14.90;99.90;;;;;;5055953;28;20376;-63
2022/06/15 00:16:10;;;;;;;8.20;5.28;;;14.90;99.90;;;;;;5056066;28;20373;-63
2022/06/15 00:18:37;;;;;;;9.90;5.57;;;14.90;99.90;;;;;;5056118;28;20546;-63
2022/06/15 00:21:04;;;;;;;8.18;5.88;;;14.80;99.90;;;;;;5038720;28;20056;-63
2022/06/15 00:23:31;;;;;;;8.95;5.60;;;14.70;99.90;;;;;;5056130;28;20357;-63
2022/06/15 00:25:58;;;;;;;9.85;5.65;;;14.70;99.90;;;;;;5056621;28;20150;-63
2022/06/15 00:28:28;;;;;;;9.35;5.38;;;14.70;99.90;;;;;;5057021;28;20052;-63
2022/06/15 00:30:54;;;;;;;9.23;6.25;;;14.60;99.90;;;;;;5057059;28;20040;-63
2022/06/15 00:33:27;;;;;;;10.25;5.93;;;14.60;99.90;;;;;;5055929;28;20135;-63
2022/06/15 00:35:59;;;;;;;11.43;6.60;;;14.60;99.90;;;;;;5055163;28;20440;-63
2022/06/15 00:38:28;;;;;;;10.98;6.40;;;14.50;99.90;;;;;;5054947;28;20388;-63
2022/06/15 00:40:55;;;;;;;8.55;5.75;;;14.50;99.90;;;;;;5054870;28;20366;-63
2022/06/15 00:43:35;;;;;;;8.68;5.38;;;14.40;99.90;;;;;;5055336;28;20049;-63
2022/06/15 00:46:27;;;;;;;8.85;6.03;;;14.40;99.90;;;;;;5056485;28;20044;-63
2022/06/15 00:49:02;;;;;;;12.75;6.75;;;14.30;99.90;;;;;;5055534;28;20377;-63
2022/06/15 00:51:29;;;;;;;8.88;5.72;;;14.20;99.90;;;;;;5055747;28;20036;-63
2022/06/15 00:53:56;;;;;;;9.55;5.47;;;14.10;99.90;;;;;;5054321;28;20053;-63
2022/06/15 00:56:23;;;;;;;9.57;5.63;;;14.10;99.90;;;;;;5056502;28;20052;-63
2022/06/15 00:58:51;;;;;;;10.30;5.57;;;14.00;99.90;;;;;;5056460;28;20053;-63
2022/06/15 01:01:18;;;;;;;8.07;5.70;;;13.90;99.90;;;;;;5053584;28;20455;-63
2022/06/15 01:03:46;;;;;;;9.13;6.20;;;13.90;99.90;;;;;;5055260;28;20052;-63
2022/06/15 01:06:26;;;;;;;10.35;6.25;;;13.90;99.90;;;;;;5054104;28;20048;-63
2022/06/15 01:09:03;;;;;;;7.88;6.05;;;13.80;99.90;;;;;;5054788;28;20045;-63
2022/06/15 01:11:53;;;;;;;9.50;6.35;;;13.80;99.90;;;;;;5054066;28;20055;-64
2022/06/15 01:14:57;;;;;;;11.95;6.63;;;13.70;99.90;;;;;;5055208;28;20044;-63
2022/06/15 01:17:28;;;;;;;11.30;6.07;;;13.70;99.90;;;;;;5053559;28;20045;-63
2022/06/15 01:20:13;;;;;;;10.88;6.25;;;13.70;99.90;;;;;;5053811;28;20037;-63
2022/06/15 01:22:54;;;;;;;9.25;5.93;;;13.70;99.90;;;;;;5054899;28;20473;-63
2022/06/15 01:25:33;;;;;;;10.55;6.00;;;13.60;99.90;;;;;;5053696;28;20047;-63
2022/06/15 01:28:26;;;;;;;11.70;5.95;;;13.60;99.90;;;;;;5054719;28;20041;-63
2022/06/15 01:31:02;;;;;;;8.63;7.35;;;13.50;99.90;;;;;;5045904;28;20045;-63
2022/06/15 01:33:56;;;;;;;12.95;6.72;;;13.50;99.90;;;;;;5054240;28;20456;-63
2022/06/15 01:36:45;;;;;;;9.50;6.25;;;13.50;99.90;;;;;;5040544;28;20433;-61
2022/06/15 01:39:17;;;;;;;12.27;7.13;;;13.40;99.90;;;;;;5055555;28;20341;-71
2022/06/15 01:41:48;;;;;;;25.80;17.77;;;13.40;99.90;;;;;;5037628;28;20356;-63
2022/06/15 01:44:34;;;;;;;12.63;9.05;;;13.40;99.90;;;;;;5054269;28;20479;-63
2022/06/15 01:47:03;;;;;;;11.07;7.97;;;13.30;99.90;;;;;;5053264;28;20037;-63
2022/06/15 01:49:38;;;;;;;11.70;7.07;;;13.20;99.90;;;;;;5053409;28;20037;-63
2022/06/15 01:52:07;;;;;;;9.10;6.10;;;13.10;99.90;;;;;;5054455;28;20041;-63
2022/06/15 01:54:37;;;;;;;9.27;6.45;;;13.00;99.90;;;;;;5053683;28;20060;-64
2022/06/15 01:57:05;;;;;;;10.05;6.45;;;13.00;99.90;;;;;;5053944;28;20041;-63
2022/06/15 01:59:58;;;;;;;10.45;6.40;;;12.90;99.90;;;;;;5053637;28;20099;-63
2022/06/15 02:03:03;;;;;;;6.68;5.45;;;12.80;99.90;;;;;;5053129;28;20037;-63
2022/06/15 02:05:48;;;;;;;11.00;6.25;;;12.80;99.90;;;;;;5053197;28;20045;-63
2022/06/15 02:08:23;;;;;;;9.70;5.68;;;12.70;99.90;;;;;;5054385;28;20380;-63
2022/06/15 02:11:02;;;;;;;13.07;6.18;;;12.70;99.90;;;;;;5036660;28;20041;-63
2022/06/15 02:13:46;;;;;;;8.50;6.63;;;12.60;99.90;;;;;;5055120;28;20045;-63
2022/06/15 02:16:16;;;;;;;13.65;5.82;;;12.60;99.90;;;;;;5052772;28;20041;-63
2022/06/15 02:18:46;;;;;;;9.35;5.40;;;12.50;99.90;;;;;;5053879;28;20372;-63
2022/06/15 02:21:16;;;;;;;10.70;6.50;;;12.50;99.90;;;;;;5036546;28;20448;-63
2022/06/15 02:23:43;;;;;;;8.52;5.68;;;12.40;99.90;;;;;;5052595;28;20388;-63
2022/06/15 02:26:10;;;;;;;9.25;5.38;;;12.40;99.90;;;;;;5054078;28;20047;-63
2022/06/15 02:28:40;;;;;;;6.70;5.63;;;12.40;99.90;;;;;;5053314;28;20078;-63
2022/06/15 02:31:08;;;;;;;6.95;5.32;;;12.30;99.90;;;;;;5036918;28;20395;-63
2022/06/15 02:33:45;;;;;;;6.90;5.43;;;12.30;99.90;;;;;;5053328;28;20511;-63
2022/06/15 02:36:11;;;;;;;6.75;5.45;;;12.30;99.90;;;;;;5052415;28;20044;-63
2022/06/15 02:38:38;;;;;;;8.98;6.00;;;12.30;99.90;;;;;;5053585;28;20044;-63
2022/06/15 02:41:05;;;;;;;7.78;5.38;;;12.20;99.90;;;;;;5036145;28;20045;-63
2022/06/15 02:43:32;;;;;;;10.02;5.82;;;12.20;99.90;;;;;;5053182;28;20064;-63
2022/06/15 02:46:00;;;;;;;9.40;6.45;;;12.20;99.90;;;;;;5036780;28;20091;-62
2022/06/15 02:48:33;;;;;;;8.52;5.43;;;12.20;99.90;;;;;;5054175;28;20069;-63
2022/06/15 02:51:04;;;;;;;7.43;5.78;;;12.10;99.90;;;;;;5036136;28;20052;-63
2022/06/15 02:53:31;;;;;;;6.75;5.47;;;12.10;99.90;;;;;;5051898;28;20055;-63
2022/06/15 02:55:58;;;;;;;10.55;6.15;;;12.10;99.90;;;;;;5052341;28;20488;-63
2022/06/15 02:58:32;;;;;;;11.48;5.40;;;12.00;99.90;;;;;;5052380;28;20397;-63
2022/06/15 03:00:59;;;;;;;6.68;5.47;;;12.00;99.90;;;;;;5053182;28;20135;-63
2022/06/15 03:03:27;;;;;;;8.57;5.82;;;11.90;99.90;;;;;;5052691;28;20052;-63
2022/06/15 03:05:54;;;;;;;10.93;5.85;;;11.90;99.90;;;;;;5052370;28;20370;-63
2022/06/15 03:08:21;;;;;;;9.27;5.43;;;11.80;99.90;;;;;;5052730;28;20048;-63
2022/06/15 03:10:51;;;;;;;9.93;5.57;;;11.80;99.90;;;;;;5052249;28;20041;-63
2022/06/15 03:13:19;;;;;;;12.82;6.07;;;11.70;99.90;;;;;;5054211;28;20339;-63
2022/06/15 03:15:46;;;;;;;7.78;5.53;;;11.70;99.90;;;;;;5052695;28;20037;-63
2022/06/15 03:18:13;;;;;;;10.15;5.65;;;11.70;99.90;;;;;;5053403;28;20044;-63
2022/06/15 03:20:40;;;;;;;7.57;5.80;;;11.70;99.90;;;;;;5054081;28;20048;-63
2022/06/15 03:23:07;;;;;;;8.80;6.10;;;11.60;99.90;;;;;;5053641;28;20044;-63
2022/06/15 03:25:35;;;;;;;8.27;6.40;;;11.50;99.90;;;;;;5056777;28;20145;-63
2022/06/15 03:28:02;;;;;;;10.43;6.32;;;11.60;99.90;;;;;;5057088;28;20045;-63
2022/06/15 03:30:30;;;;;;;10.73;6.45;;;11.60;99.90;;;;;;5057448;28;20504;-63
2022/06/15 03:32:57;;;;;;;6.65;5.85;;;11.60;99.90;;;;;;5057020;28;20041;-63
2022/06/15 03:35:34;;;;;;;8.82;5.60;;;11.60;99.90;;;;;;5057376;28;20429;-63
2022/06/15 03:38:02;;;;;;;8.10;5.93;;;11.50;99.90;;;;;;5057077;28;20053;-63
2022/06/15 03:40:29;;;;;;;9.85;6.30;;;11.50;99.90;;;;;;5055706;28;20499;-63
2022/06/15 03:42:56;;;;;;;9.68;5.07;;;11.50;99.90;;;;;;5057704;28;20060;-63
2022/06/15 03:45:23;;;;;;;8.82;5.68;;;11.50;99.90;;;;;;5057122;28;20388;-63
2022/06/15 03:47:50;;;;;;;8.75;5.53;;;11.50;99.90;;;;;;5057025;28;20080;-63
2022/06/15 03:50:17;;;;;;;8.00;5.75;;;11.40;99.90;;;;;;5055769;28;20051;-63
2022/06/15 03:52:44;;;;;;;7.68;5.38;;;11.40;99.90;;;;;;5039504;28;20067;-63
2022/06/15 03:55:11;;;;;;;6.20;5.32;;;11.40;99.90;;;;;;5056212;28;20053;-63
2022/06/15 03:57:38;;;;;;;7.05;5.60;;;11.40;99.90;;;;;;5056907;28;20037;-63
2022/06/15 04:00:06;;;;;;;7.53;5.32;;;11.40;99.90;;;;;;5055689;28;20045;-63
2022/06/15 04:02:33;;;;;;;8.68;6.05;;;11.40;99.90;;;;;;5055617;28;20052;-63
2022/06/15 04:05:00;;;;;;;6.82;5.40;;;11.40;99.90;;;;;;5056738;28;20052;-63
2022/06/15 04:10:13;;;;;;;7.00;5.93;;;11.40;99.90;;;;;;5056703;28;20074;-63
2022/06/15 04:12:42;;;;;;;7.63;5.70;;;11.40;99.90;;;;;;5055480;28;20493;-63
2022/06/15 04:15:09;;;;;;;8.85;6.32;;;11.40;99.90;;;;;;5056558;28;20051;-63
2022/06/15 04:17:36;;;;;;;8.43;5.40;;;11.40;99.90;;;;;;5055034;28;20048;-63
2022/06/15 04:22:50;;;;;;;7.88;5.78;;;11.40;99.90;;;;;;5056533;28;20136;-63
2022/06/15 04:25:17;;;;;;;7.97;5.70;;;11.40;99.90;;;;;;5056064;28;20045;-63
2022/06/15 04:27:44;;;;;;;9.23;5.55;;;11.40;99.90;;;;;;5056298;28;20492;-63
2022/06/15 04:30:12;;;;;;;7.65;6.22;;;11.50;99.90;;;;;;5056595;28;20411;-63
2022/06/15 04:32:39;;;;;;;11.07;6.00;;;11.50;99.90;;;;;;5054722;28;20055;-63
2022/06/15 04:35:06;;;;;;;11.15;6.38;;;11.60;99.90;;;;;;5054203;28;20041;-63
2022/06/15 04:37:33;;;;;;;10.95;7.00;;;11.60;99.90;;;;;;5055788;28;20045;-63
2022/06/15 04:40:00;;;;;;;7.68;5.97;;;11.70;99.90;;;;;;5054976;28;20044;-63
2022/06/15 04:42:27;;;;;;;8.32;6.85;;;12.10;99.90;;;;;;5056559;28;20045;-63
2022/06/15 04:44:54;;;;;;;8.52;6.28;;;12.60;99.90;;;;;;5055364;28;20037;-63
2022/06/15 04:47:21;;;;;;;9.55;6.28;;;13.10;99.90;;;;;;5055967;28;20049;-63
2022/06/15 04:49:48;;;;;;;9.48;6.85;;;13.60;99.90;;;;;;5056349;28;20044;-63
2022/06/15 04:52:15;;;;;;;7.03;5.93;;;14.20;99.90;;;;;;5055796;28;20051;-63
2022/06/15 04:54:42;;;;;;;9.98;6.65;;;14.70;99.90;;;;;;5056520;28;20099;-63
2022/06/15 04:57:09;;;;;;;10.68;6.22;;;15.20;99.90;;;;;;5054515;28;20225;-63
2022/06/15 04:59:36;;;;;;;8.38;6.40;;;15.70;99.90;;;;;;5054977;28;20049;-64
2022/06/15 05:02:03;;;;;;;9.00;7.05;;;16.20;99.90;;;;;;5056958;28;20083;-64
2022/06/15 05:04:36;;;;;;;7.70;6.22;;;16.70;99.90;;;;;;5054154;28;20051;-64
2022/06/15 05:07:04;;;;;;;9.80;7.07;;;17.10;99.90;;;;;;5054023;28;20048;-64
2022/06/15 05:09:31;;;;;;;10.80;6.55;;;17.50;99.90;;;;;;5055902;28;20073;-64
2022/06/15 05:11:57;;;;;;;8.02;6.47;;;18.00;99.90;;;;;;5055190;28;20041;-64
2022/06/15 05:14:25;;;;;;;8.45;6.50;;;18.40;99.90;;;;;;5055152;28;20496;-64
2022/06/15 05:16:52;;;;;;;7.18;6.45;;;18.70;99.90;;;;;;5054244;28;20441;-64
2022/06/15 05:19:19;;;;;;;8.85;6.85;;;19.10;99.90;;;;;;5055128;28;20558;-64
2022/06/15 05:21:46;;;;;;;17.80;15.85;;;19.40;99.90;;;;;;5056060;28;20036;-64
2022/06/15 05:24:13;;;;;;;11.65;8.07;;;19.60;99.90;;;;;;5070123;28;20476;-64
2022/06/15 05:26:40;;;;;;;8.90;7.10;;;19.70;99.90;;;;;;5053639;28;20037;-64
2022/06/15 05:29:07;;;;;;;8.43;7.40;;;19.90;99.90;;;;;;5053823;28;20045;-64
2022/06/15 05:31:41;;;;;;;8.43;6.93;;;20.10;99.20;;;;;;5053613;28;20080;-65
2022/06/15 05:34:08;;;;;;;11.73;8.55;;;20.30;97.80;;;;;;5054921;28;20044;-64
2022/06/15 05:36:35;;;;;;;8.80;7.35;;;20.50;96.70;;;;;;5054895;28;20063;-64
2022/06/15 05:39:03;;;;;;;8.98;7.22;;;20.60;96.00;;;;;;5053606;28;20048;-64
2022/06/15 05:41:30;;;;;;;11.50;7.57;;;20.60;95.20;;;;;;5055789;28;20072;-64
2022/06/15 05:44:10;;;;;;;9.50;7.43;;;20.50;94.50;;;;;;5054445;28;20469;-64
2022/06/15 05:46:40;;;;;;;11.57;8.10;;;20.30;94.90;;;;;;5053209;28;20044;-64
2022/06/15 05:49:08;;;;;;;10.10;8.65;;;20.10;95.10;;;;;;5053668;28;20380;-64
2022/06/15 05:51:35;;;;;;;11.73;8.60;;;19.80;96.40;;;;;;5054321;28;20473;-64
2022/06/15 05:54:02;;;;;;;13.77;9.75;;;19.70;97.30;;;;;;5054879;28;20071;-71
2022/06/15 05:56:33;;;;;;;21.13;16.98;;;19.60;98.40;;;;;;5036696;28;20048;-66
2022/06/15 05:59:00;;;;;;;15.70;12.52;;;19.50;99.30;;;;;;5054184;28;20052;-66
2022/06/15 06:01:29;;;;;;;14.02;9.63;;;19.30;99.90;;;;;;5054315;28;20488;-64
2022/06/15 06:03:57;;;;;;;15.00;10.07;;;19.30;99.90;;;;;;5053398;28;20048;-65
2022/06/15 06:06:24;;;;;;;13.93;9.57;;;19.30;99.90;;;;;;5037674;28;20037;-66
2022/06/15 06:08:51;;;;;;;14.95;10.15;;;19.30;99.90;;;;;;5053159;28;20333;-65
2022/06/15 06:11:19;;;;;;;13.52;9.23;;;19.30;99.90;;;;;;5055029;28;20040;-76
2022/06/15 06:13:46;;;;;;;31.38;17.17;;;19.30;99.90;;;;;;5053700;28;20041;-72
2022/06/15 06:16:18;;;;;;;24.15;16.88;;;19.40;99.90;;;;;;5038374;28;20045;-72
2022/06/15 06:18:45;;;;;;;17.00;9.93;;;19.40;99.90;;;;;;5053134;28;20075;-66
2022/06/15 06:21:12;;;;;;;16.98;10.98;;;19.40;99.90;;;;;;5054918;28;20063;-66
2022/06/15 06:23:39;;;;;;;12.48;9.68;;;19.40;99.90;;;;;;5054133;28;20037;-76
2022/06/15 06:26:06;;;;;;;17.27;9.52;;;19.40;99.90;;;;;;5055010;28;20471;-75
2022/06/15 06:28:35;;;;;;;15.13;9.55;;;19.40;99.90;;;;;;5052693;28;20051;-65
2022/06/15 06:31:03;;;;;;;19.55;11.43;;;19.30;99.90;;;;;;5053998;28;20381;-65
2022/06/15 06:33:32;;;;;;;14.02;9.45;;;19.30;99.90;;;;;;5068892;28;20048;-66
2022/06/15 06:36:00;;;;;;;16.17;8.88;;;19.40;99.90;;;;;;5052515;28;20041;-80
2022/06/15 06:38:27;;;;;;;19.33;8.77;;;19.50;99.90;;;;;;5036936;28;20041;-72
2022/06/15 06:40:55;;;;;;;13.85;8.85;;;19.40;99.90;;;;;;5054093;28;20053;-71
2022/06/15 06:43:22;;;;;;;13.73;8.48;;;19.50;99.90;;;;;;5052704;28;20044;-70
2022/06/15 06:45:49;;;;;;;13.68;8.55;;;19.60;99.90;;;;;;5052164;28;20044;-69
2022/06/15 06:48:16;;;;;;;12.82;8.55;;;19.70;99.90;;;;;;5054368;28;20353;-71
2022/06/15 06:50:43;;;;;;;13.02;8.13;;;19.70;99.90;;;;;;5052138;28;20048;-70
2022/06/15 06:53:11;;;;;;;11.18;8.73;;;19.70;99.90;;;;;;5051897;28;20075;-70
2022/06/15 06:55:38;;;;;;;17.27;8.75;;;19.70;99.90;;;;;;5052062;28;20048;-70
2022/06/15 06:58:05;;;;;;;12.07;8.45;;;19.80;99.90;;;;;;5035191;28;20377;-61
2022/06/15 07:00:33;;;;;;;15.50;7.90;;;19.80;99.90;;;;;;5052098;28;20041;-70
2022/06/15 07:03:01;;;;;;;12.25;8.57;;;19.90;99.90;;;;;;5052073;28;20052;-70
2022/06/15 07:05:28;;;;;;;20.83;8.60;;;20.00;99.90;;;;;;5052293;28;20045;-69
2022/06/15 07:07:55;;;;;;;15.38;8.15;;;20.00;99.90;;;;;;5052489;28;20127;-71
2022/06/15 07:10:25;;;;;;;13.68;8.30;;;20.10;99.90;;;;;;5036654;28;20045;-71
2022/06/15 07:12:55;;;;;;;9.70;7.22;;;20.20;99.90;;;;;;5054264;28;20111;-73
2022/06/15 07:15:22;;;;;;;11.43;7.35;;;20.20;99.90;;;;;;5052940;28;20041;-71
2022/06/15 07:17:49;;;;;;;12.50;6.63;;;20.30;99.90;;;;;;5053582;28;20052;-68
2022/06/15 07:20:16;;;;;;;18.20;11.05;;;20.30;99.90;;;;;;5051820;28;20048;-71
2022/06/15 07:22:43;;;;;;;17.63;10.63;;;20.40;99.90;;;;;;5052922;28;20045;-70
2022/06/15 07:25:10;;;;;;;17.63;11.02;;;20.40;99.90;;;;;;5053741;28;20037;-69
2022/06/15 07:27:37;;;;;;;10.07;7.20;;;20.60;99.90;;;;;;5053206;28;20384;-67
2022/06/15 07:30:07;;;;;;;12.85;7.20;;;20.70;99.90;;;;;;5051950;28;20045;-74
2022/06/15 07:32:34;;;;;;;10.52;6.47;;;20.80;99.90;;;;;;5051707;28;20055;-72
2022/06/15 07:35:03;;;;;;;12.27;6.35;;;20.80;99.90;;;;;;5051709;28;20080;-71
2022/06/15 07:37:30;;;;;;;11.95;7.03;;;20.90;99.90;;;;;;5051785;28;20059;-71
2022/06/15 07:40:18;;;;;;;9.43;6.22;;;21.00;99.90;;;;;;5038410;28;20481;-72
2022/06/15 07:42:45;;;;;;;9.88;5.80;;;21.00;99.90;;;;;;5053658;28;20041;-70
2022/06/15 07:45:12;;;;;;;11.02;6.35;;;21.10;99.90;;;;;;5053104;28;20037;-69
2022/06/15 07:50:24;;;;;;;14.35;6.53;;;21.30;99.90;;;;;;5051910;28;20388;-69
2022/06/15 07:53:01;;;;;;;12.77;5.60;;;21.40;99.40;;;;;;5052645;28;20045;-68
2022/06/15 07:55:30;;;;;;;11.13;6.90;;;21.50;98.20;;;;;;5053623;28;20132;-67
2022/06/15 07:57:59;;;;;;;9.75;5.93;;;21.50;97.90;;;;;;5052665;28;20052;-67
2022/06/15 08:00:26;;;;;;;10.65;4.75;;;21.60;96.50;;;;;;5052947;28;20045;-66
2022/06/15 08:02:53;;;;;;;8.35;4.85;;;21.70;97.00;;;;;;5053466;28;20041;-67
2022/06/15 08:05:20;;;;;;;9.27;4.95;;;21.80;95.70;;;;;;5052651;28;20041;-67
2022/06/15 08:07:47;;;;;;;10.63;5.00;;;21.80;95.10;;;;;;5052904;28;20045;-67
2022/06/15 08:10:16;;;;;;;9.68;5.38;;;21.90;95.40;;;;;;5038077;28;20052;-66
2022/06/15 08:12:43;;;;;;;7.03;4.50;;;22.00;95.50;;;;;;5056732;28;20045;-67
2022/06/15 08:15:10;;;;;;;8.98;5.28;;;22.10;95.50;;;;;;5056295;28;20048;-67
2022/06/15 08:17:45;;;;;;;8.38;5.32;;;22.10;94.70;;;;;;5056936;28;20049;-68
2022/06/15 08:20:22;;;;;;;14.75;7.18;;;22.10;93.50;;;;;;5056858;28;20392;-65
2022/06/15 08:22:55;;;;;;;11.60;5.75;;;22.20;93.40;;;;;;5055644;28;20053;-68
2022/06/15 08:25:31;;;;;;;11.00;5.20;;;22.30;93.20;;;;;;5056079;28;20049;-67
2022/06/15 08:27:58;;;;;;;18.63;5.97;;;22.30;92.90;;;;;;5055065;28;20477;-66
2022/06/15 08:30:26;;;;;;;19.88;5.70;;;22.20;92.40;;;;;;5056852;28;20045;-64
2022/06/15 08:32:53;;;;;;;10.48;5.18;;;22.40;92.20;;;;;;5056303;28;20052;-65
2022/06/15 08:35:20;;;;;;;11.13;5.05;;;22.50;91.60;;;;;;5056910;28;20357;-65
2022/06/15 08:37:47;;;;;;;7.85;4.38;;;22.70;92.30;;;;;;5055073;28;20056;-65
2022/06/15 08:40:14;;;;;;;7.72;4.07;;;22.80;90.20;;;;;;5055629;28;20045;-66
2022/06/15 08:42:47;;;;;;;10.68;4.50;;;22.90;90.50;;;;;;5055650;28;20420;-65
2022/06/15 08:45:29;;;;;;;8.45;3.90;;;23.10;88.30;;;;;;5056526;28;20132;-67
2022/06/15 08:47:56;;;;;;;10.68;3.97;;;23.30;88.10;;;;;;5054501;28;20098;-67
2022/06/15 08:50:33;;;;;;;5.90;3.75;;;23.40;87.00;;;;;;5055715;28;20048;-65
2022/06/15 08:53:19;;;;;;;8.45;3.88;;;23.40;83.80;;;;;;5055906;28;20048;-66
2022/06/15 08:55:52;;;;;;;;;;;23.40;81.90;;;;;;5054471;28;20055;-68
2022/06/15 08:58:18;;;;;;;9.10;3.03;;;23.50;81.80;;;;;;5056489;28;19917;-68
2022/06/15 09:00:46;;;;;;;4.97;2.80;;;23.60;81.80;;;;;;5055326;28;20047;-68
2022/06/15 09:03:26;;;;;;;5.13;2.72;;;23.70;79.90;;;;;;5054978;28;20037;-68
2022/06/15 09:06:07;;;;;;;40.38;36.05;;;23.80;78.30;;;;;;5054928;28;20044;-65
2022/06/15 09:08:42;;;;;;;9.02;4.15;;;23.90;74.10;;;;;;5055025;28;20045;-66
2022/06/15 09:11:19;;;;;;;3.88;2.08;;;24.00;72.20;;;;;;5053990;28;20120;-68
2022/06/15 09:14:19;;;;;;;6.93;2.95;;;24.10;72.70;;;;;;5056304;28;20041;-67
2022/06/15 09:16:50;;;;;;;5.55;2.80;;;24.20;70.40;;;;;;5056205;28;20334;-66
2022/06/15 09:19:26;;;;;;;4.75;2.58;;;24.30;72.00;;;;;;5054939;28;20045;-61
2022/06/15 09:22:08;;;;;;;7.18;2.70;;;24.40;72.90;;;;;;5053210;28;20048;-65
2022/06/15 09:24:48;;;;;;;6.38;2.85;;;24.50;71.10;;;;;;5053666;28;20124;-65
2022/06/15 09:27:26;;;;;;;3.70;2.08;;;24.50;66.70;;;;;;5053677;28;20048;-65
2022/06/15 09:29:59;;;;;;;5.40;2.25;;;24.40;66.40;;;;;;5037371;28;20043;-67
2022/06/15 09:32:33;;;;;;;3.55;2.10;;;24.40;67.40;;;;;;5054216;28;20052;-66
2022/06/15 09:35:13;;;;;;;6.20;2.47;;;24.40;69.60;;;;;;5053890;28;20376;-65
2022/06/15 09:37:41;;;;;;;5.60;2.90;;;24.50;67.70;;;;;;5054727;28;20477;-66
2022/06/15 09:40:08;;;;;;;5.40;2.20;;;24.50;67.00;;;;;;5054853;28;20051;-67
2022/06/15 09:42:41;;;;;;;5.53;3.13;;;24.50;66.20;;;;;;5053334;28;20040;-64
2022/06/15 09:45:39;;;;;;;6.53;2.83;;;24.40;64.10;;;;;;5054823;28;20049;-66
2022/06/15 09:48:35;;;;;;;7.97;2.53;;;24.40;67.20;;;;;;5053336;28;20041;-66
2022/06/15 09:51:05;;;;;;;7.75;2.38;;;24.40;68.10;;;;;;5053743;28;20301;-66
2022/06/15 09:53:49;;;;;;;4.53;2.60;;;24.40;68.40;;;;;;5054298;28;20492;-66
2022/06/15 09:56:17;;;;;;;7.00;3.05;;;24.50;68.90;;;;;;5054008;28;20052;-65
2022/06/15 09:58:54;;;;;;;9.32;2.88;;;24.50;66.60;;;;;;5055386;28;20044;-65
2022/06/15 10:01:25;;;;;;;6.57;2.85;;;24.60;64.80;;;;;;5053265;28;20049;-66
2022/06/15 10:03:53;;;;;;;6.25;2.45;;;24.70;64.70;;;;;;5052898;28;20121;-66
2022/06/15 10:06:31;;;;;;;6.03;2.43;;;24.70;65.20;;;;;;5036671;28;20392;-65
2022/06/15 10:08:57;;;;;;;4.25;2.75;;;24.80;64.90;;;;;;5053111;28;20045;-65
2022/06/15 10:11:28;;;;;;;5.57;2.90;;;24.80;66.20;;;;;;5053122;28;20047;-61
2022/06/15 10:13:55;;;;;;;8.32;2.58;;;24.90;65.40;;;;;;5037355;28;20381;-61
2022/06/15 10:16:30;;;;;;;5.78;2.53;;;24.90;64.80;;;;;;5052972;28;20041;-62
2022/06/15 10:18:58;;;;;;;4.85;2.42;;;24.80;64.80;;;;;;5052992;28;20044;-61
2022/06/15 10:21:30;;;;;;;19.13;3.30;;;24.80;65.80;;;;;;5053205;28;20052;-61
2022/06/15 10:24:17;;;;;;;7.15;2.45;;;24.80;64.70;;;;;;5053738;28;20052;-61
2022/06/15 10:26:46;;;;;;;6.40;2.88;;;24.90;66.40;;;;;;5053533;28;20048;-62
2022/06/15 10:29:18;;;;;;;5.65;2.47;;;24.80;64.30;;;;;;5052802;28;20049;-61
2022/06/15 10:32:01;;;;;;;5.38;2.78;;;24.90;65.40;;;;;;5053633;28;20056;-63
2022/06/15 10:34:30;;;;;;;5.97;2.53;;;25.10;64.70;;;;;;5054838;28;20063;-62
2022/06/15 10:36:58;;;;;;;4.63;2.50;;;25.20;61.90;;;;;;5052592;28;20047;-62
2022/06/15 10:39:28;;;;;;;13.10;10.85;;;25.30;65.00;;;;;;5053818;28;20045;-61
2022/06/15 10:42:16;;;;;;;5.88;5.28;;;25.40;64.20;;;;;;5054575;28;20045;-62
2022/06/15 10:44:59;;;;;;;8.02;3.13;;;25.50;63.70;;;;;;5053148;28;20063;-64
2022/06/15 10:47:42;;;;;;;9.52;3.08;;;25.60;64.60;;;;;;5052875;28;20051;-63
2022/06/15 10:50:38;;;;;;;5.00;2.67;;;25.70;64.80;;;;;;5052178;28;20036;-64
2022/06/15 10:53:27;;;;;;;5.95;2.30;;;25.90;63.40;;;;;;5048625;28;20442;-63
2022/06/15 11:02:07;;;;;;;3.95;2.25;;;25.90;59.80;;;;;;5053331;28;20049;-61
2022/06/15 11:05:04;;;;;;;5.53;2.53;;;25.80;58.80;;;;;;5052678;28;20419;-72
2022/06/15 11:07:43;;;;;;;5.50;2.20;;;25.80;59.80;;;;;;5052265;28;20228;-72
2022/06/15 11:10:10;;;;;;;4.90;2.13;;;25.80;59.80;;;;;;5051944;28;20119;-74
2022/06/15 11:12:39;;;;;;;6.90;2.30;;;25.80;59.30;;;;;;5052187;28;20048;-74
2022/06/15 11:15:13;;;;;;;4.47;2.63;;;25.80;59.60;;;;;;5052805;28;20073;-72
2022/06/15 11:18:01;;;;;;;6.10;2.92;;;26.00;60.90;;;;;;5053035;28;20041;-72
2022/06/15 11:20:31;;;;;;;4.15;2.10;;;26.20;59.10;;;;;;5054200;28;20362;-71
2022/06/15 11:23:16;;;;;;;4.57;2.40;;;26.20;58.60;;;;;;5054093;28;20056;-72
2022/06/15 11:25:50;;;;;;;4.53;2.53;;;26.10;58.40;;;;;;5052652;28;20037;-69
2022/06/15 11:28:25;;;;;;;8.15;2.22;;;26.10;59.90;;;;;;5051724;28;20136;-70
2022/06/15 11:30:59;;;;;;;11.40;6.05;;;26.20;60.50;;;;;;5051634;28;20513;-69
2022/06/15 11:33:34;;;;;;;4.90;2.88;;;26.30;60.00;;;;;;5052552;28;20041;-72
2022/06/15 11:36:07;;;;;;;6.40;2.35;;;26.40;59.80;;;;;;5053002;28;20049;-71
2022/06/15 11:38:37;;;;;;;4.63;2.22;;;26.50;59.60;;;;;;5036278;28;20047;-70
2022/06/15 11:41:41;;;;;;;4.78;2.97;;;26.50;58.90;;;;;;5053263;28;20056;-70
2022/06/15 11:44:20;;;;;;;6.30;2.35;;;26.40;54.70;;;;;;5054018;28;20037;-70
2022/06/15 11:47:06;;;;;;;6.45;2.65;;;26.30;55.00;;;;;;5055656;28;20045;-70
2022/06/15 11:49:42;;;;;;;4.10;2.42;;;26.30;56.80;;;;;;5056652;28;20056;-70
2022/06/15 11:52:33;;;;;;;6.25;2.55;;;26.10;56.20;;;;;;5057819;28;20044;-70
2022/06/15 11:55:18;;;;;;;6.30;2.53;;;26.10;56.80;;;;;;5055628;28;20052;-70
2022/06/15 11:58:04;;;;;;;4.95;2.65;;;26.10;59.00;;;;;;5057699;28;20037;-70
2022/06/15 12:00:33;;;;;;;4.53;2.13;;;26.10;58.60;;;;;;5038911;28;20041;-74
2022/06/15 12:03:38;;;;;;;3.40;2.17;;;26.20;56.00;;;;;;5056004;28;20048;-74
2022/06/15 12:06:10;;;;;;;4.22;2.03;;;26.20;56.10;;;;;;5056934;28;20413;-74
2022/06/15 12:08:56;;;;;;;5.35;2.33;;;26.10;56.10;;;;;;5055244;28;20045;-75
2022/06/15 12:14:30;;;;;;;5.72;2.40;;;26.10;55.80;;;;;;5054742;28;20049;-74
2022/06/15 12:17:08;;;;;;;5.43;2.60;;;26.10;56.80;;;;;;5054908;28;20087;-73
2022/06/15 12:19:48;;;;;;;4.53;2.28;;;26.20;55.90;;;;;;5056412;28;20166;-74
2022/06/15 12:22:31;;;;;;;3.53;2.00;;;26.10;55.60;;;;;;5055766;28;20099;-74
2022/06/15 12:25:19;;;;;;;3.83;2.30;;;26.30;56.90;;;;;;5054956;28;20508;-73
2022/06/15 12:28:09;;;;;;;10.50;8.80;;;26.50;56.20;;;;;;5054924;28;20048;-72
2022/06/15 12:30:40;;;;;;;6.10;3.55;;;26.60;57.70;;;;;;5056742;28;20041;-72
2022/06/15 12:33:25;;;;;;;5.90;2.75;;;26.70;57.50;;;;;;5054650;28;20044;-72
2022/06/15 12:36:15;;;;;;;6.70;2.47;;;26.70;55.80;;;;;;5055788;28;20502;-71
2022/06/15 12:38:49;;;;;;;5.22;2.10;;;26.70;57.20;;;;;;5055682;28;20037;-71
2022/06/15 12:44:55;;;;;;;5.50;2.53;;;26.40;55.20;;;;;;5056043;28;20411;-68
2022/06/15 12:47:23;;;;;;;5.03;2.30;;;26.40;56.20;;;;;;5053866;28;20045;-72
2022/06/15 12:50:13;;;;;;;4.88;2.28;;;26.50;57.60;;;;;;5038482;28;20040;-70
2022/06/15 12:52:49;;;;;;;5.95;2.28;;;26.60;57.30;;;;;;5055426;28;20131;-71
2022/06/15 12:55:58;;;;;;;6.78;3.30;;;26.70;56.80;;;;;;5037714;28;20369;-71
2022/06/15 12:58:30;;;;;;;6.93;2.17;;;26.70;55.50;;;;;;5033646;28;20136;-68
2022/06/15 13:01:18;;;;;;;4.35;2.10;;;26.70;56.30;;;;;;5053161;28;20140;-70
2022/06/15 13:04:10;;;;;;;3.85;2.28;;;26.90;57.70;;;;;;5054438;28;20041;-70
2022/06/15 13:06:39;;;;;;;4.75;2.83;;;27.10;57.70;;;;;;5055325;28;20055;-68
2022/06/15 13:09:11;;;;;;;;;;;27.00;55.00;;;;;;5056516;28;20059;-70
2022/06/15 13:12:04;;;;;;;4.15;2.38;;;26.90;55.40;;;;;;5069945;28;20375;-71
2022/06/15 13:14:43;;;;;;;4.65;2.25;;;26.80;57.20;;;;;;5054003;28;20053;-71
2022/06/15 13:17:15;;;;;;;4.50;2.20;;;26.70;56.40;;;;;;5055636;28;20136;-70
2022/06/15 13:20:04;;;;;;;4.18;2.55;;;26.70;57.10;;;;;;5053970;28;20051;-70
2022/06/15 13:22:35;;;;;;;4.10;2.53;;;26.50;57.10;;;;;;5054819;28;20045;-68
2022/06/15 13:25:09;;;;;;;10.07;2.85;;;26.50;56.60;;;;;;5055792;28;20049;-70
2022/06/15 13:27:38;;;;;;;3.60;2.20;;;26.60;57.00;;;;;;5037516;28;20104;-73
2022/06/15 13:30:25;;;;;;;5.45;2.83;;;26.70;57.10;;;;;;5053766;28;20399;-74
2022/06/15 13:32:59;;;;;;;7.68;2.60;;;26.60;57.10;;;;;;5055353;28;20365;-72